Time;durP1;ratioP1;P1;durP2;ratioP2;P2;SDS_P1;SDS_P2;PMS_P1;PMS_P2;Temp;Humidity;BMP_temperature;BMP_pressure;BME280_temperature;BME280_humidity;BME280_pressure;Samples;Min_cycle;Max_cycle;Signal;HPM_P1;HPM_P2
2021/11/13 00:00:12;;;;;;;12.18;2.60;;;13.30;88.50;;;;;;5009576;28;20418;-80
2021/11/13 00:02:38;;;;;;;13.30;2.80;;;13.30;88.60;;;;;;5010159;28;20475;-81
2021/11/13 00:05:04;;;;;;;9.40;2.83;;;13.30;88.60;;;;;;5006589;28;20054;-83
2021/11/13 00:07:30;;;;;;;13.70;2.80;;;13.30;88.70;;;;;;5010083;28;20026;-83
2021/11/13 00:09:56;;;;;;;12.48;2.92;;;13.30;88.60;;;;;;5009940;28;20033;-83
2021/11/13 00:12:22;;;;;;;11.70;2.60;;;13.30;88.50;;;;;;5012476;28;20376;-83
2021/11/13 00:14:47;;;;;;;14.07;3.10;;;13.30;88.70;;;;;;5010765;28;20635;-83
2021/11/13 00:17:14;;;;;;;11.10;2.55;;;13.30;88.70;;;;;;5028566;28;20037;-83
2021/11/13 00:19:40;;;;;;;14.57;3.20;;;13.30;88.70;;;;;;5010071;28;20026;-83
2021/11/13 00:22:07;;;;;;;12.15;2.70;;;13.30;88.80;;;;;;5011053;28;20128;-83
2021/11/13 00:24:32;;;;;;;16.88;3.05;;;13.30;88.80;;;;;;5009959;28;20018;-83
2021/11/13 00:26:58;;;;;;;12.95;3.00;;;13.30;88.90;;;;;;5009813;28;20037;-83
2021/11/13 00:29:24;;;;;;;7.35;2.53;;;13.30;88.70;;;;;;4994236;28;20032;-83
2021/11/13 00:31:51;;;;;;;16.77;2.90;;;13.30;88.80;;;;;;5011849;28;20049;-83
2021/11/13 00:34:18;;;;;;;12.75;2.33;;;13.30;88.60;;;;;;4988281;28;20033;-83
2021/11/13 00:36:44;;;;;;;15.20;2.95;;;13.30;88.90;;;;;;5002461;28;20168;-82
2021/11/13 00:39:10;;;;;;;12.52;3.00;;;13.20;88.90;;;;;;5009023;28;20101;-84
2021/11/13 00:41:35;;;;;;;12.20;2.63;;;13.20;88.90;;;;;;5010157;28;20514;-83
2021/11/13 00:44:01;;;;;;;9.85;2.60;;;13.20;88.90;;;;;;5011831;28;20126;-82
2021/11/13 00:46:27;;;;;;;15.43;3.15;;;13.20;88.90;;;;;;5009175;28;20112;-83
2021/11/13 00:48:52;;;;;;;8.82;2.80;;;13.20;88.90;;;;;;4991649;28;20069;-82
2021/11/13 00:51:18;;;;;;;13.02;2.55;;;13.20;88.90;;;;;;5009192;28;20037;-82
2021/11/13 00:53:44;;;;;;;12.60;2.78;;;13.20;88.90;;;;;;5009050;28;20032;-83
2021/11/13 00:56:09;;;;;;;13.77;2.95;;;13.20;89.00;;;;;;5012706;28;20038;-84
2021/11/13 00:58:36;;;;;;;12.95;3.00;;;13.20;88.90;;;;;;5008622;28;20061;-84
2021/11/13 01:01:03;;;;;;;16.65;3.20;;;13.20;89.00;;;;;;4991892;28;20079;-84
2021/11/13 01:03:29;;;;;;;12.70;2.83;;;13.20;88.90;;;;;;4991643;28;20025;-83
2021/11/13 01:05:54;;;;;;;14.88;2.88;;;13.10;88.90;;;;;;5009151;28;20426;-83
2021/11/13 01:08:20;;;;;;;13.18;3.20;;;13.10;89.00;;;;;;4993583;28;20032;-83
2021/11/13 01:10:46;;;;;;;14.95;3.47;;;13.10;89.20;;;;;;5009956;28;20398;-83
2021/11/13 01:13:12;;;;;;;14.88;3.20;;;13.10;89.10;;;;;;5011508;28;20026;-83
2021/11/13 01:15:38;;;;;;;13.25;3.15;;;13.10;89.30;;;;;;5013138;28;20037;-84
2021/11/13 01:18:03;;;;;;;13.23;2.65;;;13.10;88.80;;;;;;5019422;28;20030;-82
2021/11/13 01:20:29;;;;;;;13.10;2.83;;;13.00;89.10;;;;;;4993028;28;20036;-81
2021/11/13 01:22:56;;;;;;;7.72;2.25;;;13.00;89.20;;;;;;5010515;28;20022;-83
2021/11/13 01:25:21;;;;;;;13.13;2.60;;;13.00;89.10;;;;;;5008651;28;20034;-83
2021/11/13 01:27:47;;;;;;;15.75;3.00;;;13.00;89.30;;;;;;5008510;28;20402;-83
2021/11/13 01:30:14;;;;;;;13.90;3.20;;;13.00;89.30;;;;;;5008563;28;20033;-83
2021/11/13 01:32:40;;;;;;;13.30;2.92;;;13.00;89.10;;;;;;4976303;28;20514;-82
2021/11/13 01:35:07;;;;;;;13.57;3.50;;;13.00;89.30;;;;;;5011918;28;20124;-83
2021/11/13 01:37:34;;;;;;;12.95;2.85;;;12.90;89.10;;;;;;5008406;28;20034;-83
2021/11/13 01:40:00;;;;;;;12.90;3.25;;;12.90;89.20;;;;;;5008479;28;20036;-83
2021/11/13 01:42:29;;;;;;;13.88;2.75;;;12.90;89.20;;;;;;4990908;28;20390;-83
2021/11/13 01:44:55;;;;;;;13.07;2.97;;;12.80;89.10;;;;;;5008696;28;20030;-82
2021/11/13 01:47:22;;;;;;;10.98;2.70;;;12.80;90.00;;;;;;5010982;28;20018;-83
2021/11/13 01:49:48;;;;;;;13.25;3.03;;;12.80;89.40;;;;;;5009458;28;20021;-83
2021/11/13 01:52:14;;;;;;;10.38;2.72;;;12.80;89.40;;;;;;5008146;28;20577;-82
2021/11/13 01:54:42;;;;;;;10.90;2.75;;;12.70;89.80;;;;;;5008127;28;20069;-81
2021/11/13 01:57:12;;;;;;;15.10;3.10;;;12.70;90.00;;;;;;4990951;28;20466;-83
2021/11/13 01:59:40;;;;;;;18.85;3.08;;;12.60;90.00;;;;;;5009687;28;20080;-83
2021/11/13 02:02:07;;;;;;;16.23;3.20;;;12.60;89.90;;;;;;5011895;28;20022;-83
2021/11/13 02:04:34;;;;;;;13.60;3.00;;;12.60;90.00;;;;;;5009901;28;20053;-83
2021/11/13 02:07:00;;;;;;;12.15;2.90;;;12.60;90.00;;;;;;5012291;28;20029;-83
2021/11/13 02:09:26;;;;;;;17.33;2.95;;;12.60;90.10;;;;;;5012032;28;20141;-82
2021/11/13 02:11:53;;;;;;;13.10;3.03;;;12.60;90.10;;;;;;5015103;28;20506;-83
2021/11/13 02:14:19;;;;;;;12.15;3.13;;;12.60;90.00;;;;;;5014713;28;20121;-83
2021/11/13 02:16:44;;;;;;;14.20;3.10;;;12.50;90.10;;;;;;5026300;28;20101;-83
2021/11/13 02:19:12;;;;;;;14.27;2.92;;;12.50;90.20;;;;;;5015793;28;20364;-83
2021/11/13 02:21:38;;;;;;;18.25;3.63;;;12.50;90.20;;;;;;5011828;28;20028;-83
2021/11/13 02:24:04;;;;;;;14.32;2.97;;;12.50;90.10;;;;;;5012219;28;20018;-83
2021/11/13 02:26:30;;;;;;;15.95;3.30;;;12.50;90.20;;;;;;5013708;28;20026;-83
2021/11/13 02:28:56;;;;;;;12.70;3.05;;;12.40;90.00;;;;;;5013954;28;20382;-83
2021/11/13 02:31:32;;;;;;;15.55;3.10;;;12.50;90.20;;;;;;5011738;28;20103;-83
2021/11/13 02:33:58;;;;;;;14.77;3.30;;;12.40;90.50;;;;;;5011627;28;20045;-83
2021/11/13 02:36:23;;;;;;;13.80;2.67;;;12.40;90.10;;;;;;5011492;28;20033;-83
2021/11/13 02:38:54;;;;;;;13.93;3.33;;;12.40;90.10;;;;;;5011715;28;20037;-83
2021/11/13 02:41:22;;;;;;;13.27;3.10;;;12.40;90.20;;;;;;5013597;28;20379;-83
2021/11/13 02:43:48;;;;;;;12.15;2.80;;;12.40;90.30;;;;;;5012813;28;20505;-83
2021/11/13 02:46:15;;;;;;;14.02;2.80;;;12.40;90.30;;;;;;5011654;28;20034;-81
2021/11/13 02:48:42;;;;;;;15.30;2.88;;;12.40;90.40;;;;;;5011250;28;20030;-82
2021/11/13 02:51:09;;;;;;;13.35;3.00;;;12.40;90.30;;;;;;5011295;28;20525;-83
2021/11/13 02:53:35;;;;;;;9.75;2.70;;;12.40;90.40;;;;;;5012411;28;20034;-83
2021/11/13 02:56:03;;;;;;;15.40;3.20;;;12.30;90.30;;;;;;5013625;28;20042;-82
2021/11/13 02:58:28;;;;;;;15.05;3.15;;;12.30;90.30;;;;;;5011064;28;20025;-83
2021/11/13 03:01:01;;;;;;;14.60;3.00;;;12.30;90.40;;;;;;5011338;28;20091;-83
2021/11/13 03:03:27;;;;;;;9.32;2.10;;;12.30;90.50;;;;;;4993693;28;20124;-83
2021/11/13 03:05:55;;;;;;;13.20;2.83;;;12.30;90.60;;;;;;5011162;28;20121;-83
2021/11/13 03:08:25;;;;;;;8.85;2.47;;;12.30;90.60;;;;;;5013282;28;20041;-83
2021/11/13 03:10:53;;;;;;;10.45;3.15;;;12.40;90.50;;;;;;5012232;28;20018;-83
2021/11/13 03:13:18;;;;;;;15.45;2.60;;;12.40;90.40;;;;;;5013917;28;20048;-83
2021/11/13 03:15:44;;;;;;;8.50;2.00;;;12.40;90.40;;;;;;5014964;28;20104;-83
2021/11/13 03:18:10;;;;;;;15.88;2.90;;;12.40;90.40;;;;;;5023049;28;20021;-83
2021/11/13 03:20:35;;;;;;;10.38;2.63;;;12.30;90.40;;;;;;5011667;28;20092;-83
2021/11/13 03:23:01;;;;;;;11.82;2.17;;;12.30;90.30;;;;;;5013394;28;20410;-81
2021/11/13 03:25:36;;;;;;;11.00;1.88;;;12.30;90.30;;;;;;4993034;28;20045;-82
2021/11/13 03:28:05;;;;;;;9.77;2.00;;;12.30;90.30;;;;;;5010454;28;20057;-81
2021/11/13 03:30:31;;;;;;;10.95;2.15;;;12.30;90.40;;;;;;5010333;28;20425;-82
2021/11/13 03:32:57;;;;;;;7.72;2.13;;;12.20;90.40;;;;;;5010910;28;20126;-81
2021/11/13 03:35:27;;;;;;;9.05;2.17;;;12.20;90.30;;;;;;5012674;28;20124;-81
2021/11/13 03:37:55;;;;;;;11.18;2.10;;;12.20;90.40;;;;;;5011774;28;20022;-81
2021/11/13 03:40:20;;;;;;;11.48;2.35;;;12.20;90.30;;;;;;5010644;28;20445;-82
2021/11/13 03:42:46;;;;;;;9.57;2.15;;;12.10;90.40;;;;;;5014152;28;20490;-81
2021/11/13 03:45:12;;;;;;;7.32;2.38;;;12.10;90.50;;;;;;5015731;28;20540;-83
2021/11/13 03:47:38;;;;;;;10.63;1.98;;;12.10;90.80;;;;;;5010787;28;20469;-82
2021/11/13 03:50:05;;;;;;;8.70;2.10;;;12.10;90.50;;;;;;5013140;28;20075;-81
2021/11/13 03:52:31;;;;;;;8.02;1.70;;;12.10;90.60;;;;;;5009713;28;20108;-81
2021/11/13 03:54:57;;;;;;;11.27;2.20;;;12.10;90.60;;;;;;5009594;28;20113;-82
2021/11/13 03:57:22;;;;;;;6.47;1.85;;;12.10;90.60;;;;;;5010135;28;20509;-81
2021/11/13 03:59:49;;;;;;;9.20;1.98;;;12.10;90.50;;;;;;5010709;28;20026;-83
2021/11/13 04:02:15;;;;;;;8.32;2.10;;;12.10;90.50;;;;;;5015911;28;20068;-82
2021/11/13 04:04:42;;;;;;;9.95;2.13;;;12.10;90.50;;;;;;5010653;28;20502;-82
2021/11/13 04:07:08;;;;;;;7.25;1.80;;;12.10;90.70;;;;;;5009721;28;20030;-82
2021/11/13 04:09:35;;;;;;;7.43;1.60;;;12.10;91.10;;;;;;5010073;28;20029;-83
2021/11/13 04:12:05;;;;;;;8.50;3.13;;;12.20;90.70;;;;;;5013352;28;20021;-81
2021/11/13 04:14:35;;;;;;;10.45;1.80;;;12.20;90.70;;;;;;5011403;28;20034;-83
2021/11/13 04:17:02;;;;;;;7.97;1.92;;;12.30;90.60;;;;;;5021794;28;20025;-82
2021/11/13 04:19:27;;;;;;;8.13;1.80;;;12.20;90.60;;;;;;5011040;28;20037;-82
2021/11/13 04:21:54;;;;;;;9.70;2.97;;;12.30;90.60;;;;;;5009662;28;20148;-83
2021/11/13 04:24:20;;;;;;;10.00;2.78;;;12.30;90.60;;;;;;5009989;28;20088;-82
2021/11/13 04:26:46;;;;;;;7.07;1.63;;;12.30;90.50;;;;;;5009483;28;20026;-82
2021/11/13 04:29:12;;;;;;;8.48;1.88;;;12.20;90.50;;;;;;5013545;28;20029;-83
2021/11/13 04:31:37;;;;;;;6.47;1.77;;;12.30;90.50;;;;;;4995129;28;20041;-83
2021/11/13 04:34:07;;;;;;;7.95;1.58;;;12.20;90.60;;;;;;5009436;28;20402;-82
2021/11/13 04:36:38;;;;;;;7.50;1.40;;;12.30;90.60;;;;;;5011337;28;20061;-83
2021/11/13 04:39:06;;;;;;;7.30;1.42;;;12.30;90.60;;;;;;5009789;28;20030;-84
2021/11/13 04:41:33;;;;;;;6.32;1.20;;;12.30;90.60;;;;;;5011751;28;20072;-83
2021/11/13 04:43:58;;;;;;;5.20;1.40;;;12.30;90.60;;;;;;5012370;28;20383;-84
2021/11/13 04:46:24;;;;;;;8.63;1.50;;;12.30;90.50;;;;;;5009530;28;20057;-84
2021/11/13 04:48:50;;;;;;;4.68;1.20;;;12.30;90.50;;;;;;5007261;28;20053;-84
2021/11/13 04:51:16;;;;;;;5.07;1.25;;;12.30;90.60;;;;;;4983364;28;20025;-83
2021/11/13 04:53:42;;;;;;;5.65;1.08;;;12.30;90.60;;;;;;5009780;28;20032;-84
2021/11/13 04:56:08;;;;;;;6.05;1.20;;;12.30;90.50;;;;;;5013150;28;20040;-84
2021/11/13 04:58:33;;;;;;;4.68;0.93;;;12.30;90.80;;;;;;4992328;28;20120;-83
2021/11/13 05:01:01;;;;;;;5.97;1.50;;;12.30;90.50;;;;;;4992467;28;20076;-82
2021/11/13 05:03:27;;;;;;;3.95;1.13;;;12.30;90.60;;;;;;5009597;28;20025;-81
2021/11/13 05:05:52;;;;;;;5.90;1.48;;;12.30;90.60;;;;;;5008890;28;20047;-83
2021/11/13 05:08:18;;;;;;;8.43;1.20;;;12.30;90.40;;;;;;5011257;28;20022;-83
2021/11/13 05:10:43;;;;;;;6.55;1.65;;;12.30;90.40;;;;;;4992640;28;20406;-82
2021/11/13 05:13:11;;;;;;;5.95;1.20;;;12.30;90.40;;;;;;5011878;28;20034;-83
2021/11/13 05:15:37;;;;;;;5.75;1.63;;;12.30;90.60;;;;;;5008533;28;20116;-82
2021/11/13 05:18:02;;;;;;;3.35;1.10;;;12.20;90.50;;;;;;5008896;28;20154;-81
2021/11/13 05:20:28;;;;;;;6.22;1.15;;;12.20;90.60;;;;;;5010524;28;20022;-83
2021/11/13 05:22:54;;;;;;;3.75;0.93;;;12.30;90.70;;;;;;5010766;28;20104;-84
2021/11/13 05:25:21;;;;;;;4.93;1.10;;;12.30;90.70;;;;;;5008841;28;20041;-84
2021/11/13 05:27:48;;;;;;;4.68;0.90;;;12.30;90.60;;;;;;5008821;28;20393;-83
2021/11/13 05:30:16;;;;;;;3.55;1.15;;;12.30;90.60;;;;;;5008832;28;20026;-83
2021/11/13 05:32:42;;;;;;;4.28;1.00;;;12.30;90.60;;;;;;4991940;28;20072;-83
2021/11/13 05:35:09;;;;;;;4.53;1.00;;;12.40;90.60;;;;;;5012134;28;20034;-84
2021/11/13 05:37:36;;;;;;;4.55;1.17;;;12.40;90.70;;;;;;5008441;28;20029;-84
2021/11/13 05:40:04;;;;;;;5.40;0.93;;;12.40;90.50;;;;;;5008307;28;20034;-83
2021/11/13 05:42:30;;;;;;;4.20;0.98;;;12.40;90.60;;;;;;4991498;28;20022;-84
2021/11/13 05:44:55;;;;;;;3.70;0.80;;;12.40;90.60;;;;;;5008590;28;20109;-84
2021/11/13 05:47:22;;;;;;;4.35;1.17;;;12.40;90.60;;;;;;5010840;28;20069;-83
2021/11/13 05:49:47;;;;;;;5.38;1.00;;;12.40;90.70;;;;;;5008998;28;20030;-84
2021/11/13 05:52:13;;;;;;;3.15;1.00;;;12.40;90.60;;;;;;5008132;28;20076;-84
2021/11/13 05:54:39;;;;;;;4.60;0.75;;;12.40;90.80;;;;;;5008063;28;20037;-84
2021/11/13 05:57:05;;;;;;;2.75;0.70;;;12.40;90.70;;;;;;5008401;28;20032;-83
2021/11/13 05:59:31;;;;;;;4.20;0.98;;;12.40;90.70;;;;;;5010595;28;20053;-83
2021/11/13 06:01:57;;;;;;;8.23;2.63;;;12.40;90.60;;;;;;4989940;28;20030;-84
2021/11/13 06:04:22;;;;;;;5.28;1.20;;;12.40;90.70;;;;;;5006249;28;20121;-83
2021/11/13 06:06:48;;;;;;;3.15;0.90;;;12.40;90.70;;;;;;5008414;28;20038;-83
2021/11/13 06:09:13;;;;;;;5.85;1.40;;;12.40;90.60;;;;;;5008473;28;20065;-83
2021/11/13 06:11:39;;;;;;;3.65;0.80;;;12.40;90.90;;;;;;5009101;28;20417;-83
2021/11/13 06:14:05;;;;;;;4.70;1.27;;;12.40;90.90;;;;;;5011509;28;20034;-82
2021/11/13 06:16:30;;;;;;;2.70;0.75;;;12.40;91.00;;;;;;4991175;28;20037;-83
2021/11/13 06:18:56;;;;;;;4.10;0.80;;;12.40;90.80;;;;;;5007973;28;20026;-83
2021/11/13 06:21:21;;;;;;;3.38;0.85;;;12.40;90.80;;;;;;5007751;28;20037;-82
2021/11/13 06:23:47;;;;;;;3.45;0.77;;;12.40;91.00;;;;;;5008521;28;20042;-83
2021/11/13 06:26:14;;;;;;;2.60;0.80;;;12.40;91.00;;;;;;5011829;28;20072;-83
2021/11/13 06:28:41;;;;;;;3.95;0.90;;;12.40;90.90;;;;;;5010189;28;20030;-83
2021/11/13 06:31:07;;;;;;;3.35;0.68;;;12.40;90.90;;;;;;5008101;28;20026;-82
2021/11/13 06:33:33;;;;;;;4.60;0.80;;;12.40;91.00;;;;;;5007838;28;20398;-83
2021/11/13 06:35:59;;;;;;;4.43;1.00;;;12.50;91.00;;;;;;4991059;28;20038;-84
2021/11/13 06:38:24;;;;;;;3.38;0.50;;;12.50;91.00;;;;;;5010572;28;20460;-84
2021/11/13 06:40:50;;;;;;;4.80;0.80;;;12.50;91.00;;;;;;5009677;28;20570;-84
2021/11/13 06:43:16;;;;;;;4.78;0.88;;;12.50;91.00;;;;;;5007966;28;20113;-83
2021/11/13 06:45:42;;;;;;;3.28;0.63;;;12.40;91.10;;;;;;5007948;28;20036;-83
2021/11/13 06:48:08;;;;;;;2.40;0.93;;;12.40;91.00;;;;;;5007699;28;20033;-83
2021/11/13 06:50:35;;;;;;;3.67;0.70;;;12.40;91.00;;;;;;5011151;28;20414;-83
2021/11/13 06:53:02;;;;;;;2.45;0.65;;;12.40;91.10;;;;;;5014346;28;20036;-83
2021/11/13 06:55:28;;;;;;;1.50;0.50;;;12.40;91.20;;;;;;5011571;28;20166;-83
2021/11/13 06:57:54;;;;;;;2.30;0.68;;;12.40;91.20;;;;;;5011880;28;20566;-83
2021/11/13 07:00:20;;;;;;;2.95;0.80;;;12.40;91.30;;;;;;5011944;28;20109;-83
2021/11/13 07:02:46;;;;;;;3.35;0.50;;;12.40;91.30;;;;;;5011400;28;20064;-83
2021/11/13 07:05:12;;;;;;;2.28;0.60;;;12.40;91.40;;;;;;4997510;28;20465;-83
2021/11/13 07:07:38;;;;;;;5.45;0.80;;;12.40;91.40;;;;;;5011220;28;20080;-82
2021/11/13 07:10:07;;;;;;;2.88;0.65;;;12.50;91.50;;;;;;5011428;28;20029;-82
2021/11/13 07:12:32;;;;;;;2.85;0.68;;;12.50;91.40;;;;;;5011428;28;20057;-82
2021/11/13 07:14:58;;;;;;;3.25;0.70;;;12.50;91.50;;;;;;5010873;28;20528;-83
2021/11/13 07:17:24;;;;;;;5.00;1.85;;;12.50;91.40;;;;;;5013699;28;20049;-83
2021/11/13 07:19:50;;;;;;;3.25;0.82;;;12.50;91.60;;;;;;5012714;28;20405;-83
2021/11/13 07:22:17;;;;;;;3.15;1.00;;;12.50;91.40;;;;;;5011111;28;20022;-83
2021/11/13 07:24:43;;;;;;;3.13;0.80;;;12.50;91.40;;;;;;4994219;28;20041;-82
2021/11/13 07:27:09;;;;;;;2.88;0.80;;;12.50;91.50;;;;;;5011117;28;20501;-83
2021/11/13 07:29:57;;;;;;;1.50;0.50;;;12.50;91.60;;;;;;4994534;28;20034;-83
2021/11/13 07:32:24;;;;;;;2.38;0.85;;;12.60;91.60;;;;;;5011192;28;20053;-82
2021/11/13 07:34:49;;;;;;;4.65;0.95;;;12.60;91.60;;;;;;5012129;28;20533;-82
2021/11/13 07:37:15;;;;;;;2.45;0.73;;;12.60;91.60;;;;;;5011124;28;20069;-82
2021/11/13 07:39:41;;;;;;;2.03;0.73;;;12.50;91.60;;;;;;5011077;28;20034;-83
2021/11/13 07:42:06;;;;;;;1.50;0.60;;;12.60;91.70;;;;;;5007942;28;20193;-84
2021/11/13 07:44:32;;;;;;;2.33;0.60;;;12.60;91.80;;;;;;5011066;28;20026;-84
2021/11/13 07:46:58;;;;;;;2.50;1.00;;;12.60;91.70;;;;;;5012990;28;20022;-85
2021/11/13 07:49:24;;;;;;;2.20;0.85;;;12.60;91.70;;;;;;4993608;28;20030;-84
2021/11/13 07:51:49;;;;;;;2.33;0.90;;;12.60;91.80;;;;;;5011779;28;20474;-85
2021/11/13 07:54:15;;;;;;;2.45;1.00;;;12.60;91.70;;;;;;5011571;28;20124;-84
2021/11/13 07:56:41;;;;;;;2.13;0.80;;;12.60;91.60;;;;;;5026611;28;20026;-84
2021/11/13 07:59:07;;;;;;;2.67;0.90;;;12.70;91.60;;;;;;5027607;28;20045;-85
2021/11/13 08:01:32;;;;;;;2.95;1.08;;;12.60;91.60;;;;;;5013819;28;20034;-84
2021/11/13 08:03:58;;;;;;;2.05;0.82;;;12.60;91.80;;;;;;5014408;28;20092;-83
2021/11/13 08:06:24;;;;;;;2.08;0.90;;;12.60;91.80;;;;;;5023918;28;20017;-84
2021/11/13 08:08:49;;;;;;;1.90;0.60;;;12.70;91.90;;;;;;5015274;28;20038;-85
2021/11/13 08:11:15;;;;;;;2.15;0.88;;;12.70;91.80;;;;;;5024849;28;20021;-85
2021/11/13 08:13:42;;;;;;;1.17;0.70;;;12.70;91.70;;;;;;5014007;28;20033;-85
2021/11/13 08:16:09;;;;;;;1.70;0.73;;;12.70;91.90;;;;;;5011286;28;20054;-85
2021/11/13 08:18:35;;;;;;;1.00;0.60;;;12.70;91.90;;;;;;5018541;28;20030;-86
2021/11/13 08:21:01;;;;;;;1.08;0.80;;;12.70;91.90;;;;;;5010838;28;20049;-86
2021/11/13 08:23:27;;;;;;;2.00;0.73;;;12.80;91.90;;;;;;5023777;28;20087;-86
2021/11/13 08:25:53;;;;;;;1.63;0.60;;;12.80;92.00;;;;;;4991510;28;20028;-87
2021/11/13 08:28:20;;;;;;;3.22;0.80;;;12.80;92.00;;;;;;5017812;28;20025;-86
2021/11/13 08:30:47;;;;;;;1.40;0.60;;;12.80;92.00;;;;;;5021243;28;20479;-86
2021/11/13 08:33:13;;;;;;;1.80;0.55;;;12.90;91.90;;;;;;5013404;28;20061;-86
2021/11/13 08:35:42;;;;;;;1.42;0.57;;;12.90;91.90;;;;;;5022160;28;20069;-85
2021/11/13 08:38:09;;;;;;;2.58;0.88;;;12.90;91.90;;;;;;5019132;28;20109;-84
2021/11/13 08:40:35;;;;;;;1.10;0.60;;;12.90;91.70;;;;;;5016217;28;20029;-85
2021/11/13 08:43:01;;;;;;;1.60;0.73;;;12.90;92.00;;;;;;5018218;28;20040;-83
2021/11/13 08:45:27;;;;;;;1.38;0.65;;;12.90;91.90;;;;;;4997754;28;20494;-85
2021/11/13 08:47:52;;;;;;;1.60;0.82;;;13.00;91.90;;;;;;5021759;28;20088;-85
2021/11/13 08:50:24;;;;;;;1.52;0.80;;;12.90;91.90;;;;;;5028367;28;20030;-85
2021/11/13 08:52:52;;;;;;;1.45;0.82;;;13.00;92.00;;;;;;5020613;28;20021;-85
2021/11/13 08:55:20;;;;;;;1.65;0.80;;;13.00;91.90;;;;;;5015873;28;20502;-83
2021/11/13 08:57:46;;;;;;;1.85;0.70;;;13.00;92.00;;;;;;5011897;28;20049;-85
2021/11/13 09:00:16;;;;;;;1.70;0.75;;;13.00;92.00;;;;;;5025390;28;20037;-85
2021/11/13 09:02:41;;;;;;;1.77;0.77;;;13.00;92.20;;;;;;5000627;28;20026;-84
2021/11/13 09:05:08;;;;;;;1.42;0.70;;;13.10;92.10;;;;;;5022713;28;20071;-85
2021/11/13 09:07:34;;;;;;;1.70;0.90;;;13.10;92.10;;;;;;5012439;28;20076;-86
2021/11/13 09:10:00;;;;;;;2.65;1.00;;;13.10;92.10;;;;;;5012067;28;20054;-86
2021/11/13 09:12:27;;;;;;;1.63;0.88;;;13.10;92.10;;;;;;4990314;28;20081;-85
2021/11/13 09:14:58;;;;;;;2.10;1.08;;;13.30;92.20;;;;;;5013515;28;20053;-84
2021/11/13 09:17:24;;;;;;;1.85;1.00;;;13.30;92.00;;;;;;5013146;28;20108;-84
2021/11/13 09:19:51;;;;;;;2.35;1.13;;;13.50;92.20;;;;;;5012910;28;20084;-83
2021/11/13 09:22:17;;;;;;;1.10;0.80;;;13.60;92.10;;;;;;5010961;28;20161;-84
2021/11/13 09:24:43;;;;;;;2.28;1.20;;;13.80;91.90;;;;;;5010586;28;20487;-83
2021/11/13 09:27:09;;;;;;;3.85;1.23;;;13.90;92.60;;;;;;5008248;28;20022;-82
2021/11/13 09:29:35;;;;;;;3.10;1.57;;;14.10;91.90;;;;;;5020751;28;20475;-83
2021/11/13 09:32:01;;;;;;;1.88;1.20;;;14.10;91.60;;;;;;5024153;28;20052;-83
2021/11/13 09:34:27;;;;;;;1.73;0.95;;;14.20;91.10;;;;;;5014619;28;20083;-85
2021/11/13 09:36:52;;;;;;;;;;;14.20;91.10;;;;;;5003529;28;20034;-68
2021/11/13 09:39:18;;;;;;;;;;;14.10;91.10;;;;;;5011644;28;19909;-63
2021/11/13 09:41:44;;;;;;;;;;;14.10;91.20;;;;;;5003255;28;19920;-63
2021/11/13 09:44:10;;;;;;;;;;;14.20;91.30;;;;;;5016877;28;19935;-63
2021/11/13 09:46:35;;;;;;;;;;;14.30;91.60;;;;;;5010481;28;20378;-63
2021/11/13 09:49:01;;;;;;;;;;;14.40;91.50;;;;;;5014908;28;19913;-63
2021/11/13 09:51:28;;;;;;;;;;;14.50;91.30;;;;;;5011650;28;19936;-63
2021/11/13 09:53:54;;;;;;;;;;;14.60;91.00;;;;;;5022429;28;19909;-63
2021/11/13 09:56:21;;;;;;;;;;;14.60;91.00;;;;;;5003829;28;19909;-63
2021/11/13 09:58:47;;;;;;;;;;;14.60;91.00;;;;;;5018413;28;20171;-63
2021/11/13 10:01:13;;;;;;;;;;;14.60;90.90;;;;;;5013144;28;20390;-63
2021/11/13 10:03:39;;;;;;;;;;;14.60;90.80;;;;;;5012120;28;19933;-63
2021/11/13 10:06:06;;;;;;;;;;;14.60;90.60;;;;;;5022710;28;19925;-63
2021/11/13 10:08:31;;;;;;;;;;;14.50;90.60;;;;;;5014238;28;19948;-72
2021/11/13 10:10:58;;;;;;;;;;;14.60;91.30;;;;;;4991797;28;20464;-76
2021/11/13 10:13:36;;;;;;;2.10;0.90;;;15.20;93.10;;;;;;5008642;28;20000;-78
2021/11/13 10:16:08;;;;;;;1.98;0.82;;;16.00;91.70;;;;;;4994308;28;20061;-79
2021/11/13 10:18:38;;;;;;;1.23;0.93;;;16.50;90.50;;;;;;5006828;28;20033;-81
2021/11/13 10:21:09;;;;;;;2.70;0.90;;;16.80;88.70;;;;;;4993431;28;20030;-74
2021/11/13 10:23:37;;;;;;;3.15;1.10;;;17.00;88.40;;;;;;5018842;28;20621;-76
2021/11/13 10:26:35;;;;;;;2.78;0.98;;;17.00;86.00;;;;;;5020771;28;20379;-74
2021/11/13 10:29:06;;;;;;;1.80;0.95;;;16.60;84.10;;;;;;5015197;28;20068;-86
2021/11/13 10:31:38;;;;;;;2.45;0.63;;;16.30;84.60;;;;;;5015074;28;20053;-85
2021/11/13 10:34:11;;;;;;;1.95;0.80;;;16.00;85.30;;;;;;4995308;28;20025;-74
2021/11/13 10:36:43;;;;;;;2.58;0.88;;;15.90;86.70;;;;;;4991098;28;20034;-74
2021/11/13 10:39:16;;;;;;;1.88;1.00;;;15.80;86.80;;;;;;5011779;28;20567;-76
2021/11/13 10:41:50;;;;;;;2.55;1.05;;;15.60;87.00;;;;;;5001978;28;20030;-75
2021/11/13 10:44:28;;;;;;;2.28;0.80;;;15.40;87.10;;;;;;5016555;28;20022;-75
2021/11/13 10:46:54;;;;;;;2.30;0.70;;;15.20;87.50;;;;;;5020477;28;20020;-76
2021/11/13 10:49:20;;;;;;;2.15;0.60;;;15.00;87.80;;;;;;5018387;28;20040;-75
2021/11/13 10:51:53;;;;;;;2.13;0.70;;;14.90;88.40;;;;;;5015566;28;20525;-76
2021/11/13 10:54:21;;;;;;;2.33;0.60;;;14.80;88.70;;;;;;5008398;28;20037;-75
2021/11/13 10:56:56;;;;;;;2.35;0.55;;;14.70;89.10;;;;;;4995594;28;20046;-75
2021/11/13 10:59:31;;;;;;;3.55;0.80;;;14.70;89.70;;;;;;5018984;28;20543;-74
2021/11/13 11:01:59;;;;;;;1.75;0.60;;;14.60;89.80;;;;;;5014246;28;20549;-74
2021/11/13 11:04:29;;;;;;;1.33;0.52;;;14.60;89.90;;;;;;5016281;28;20045;-75
2021/11/13 11:07:17;;;;;;;1.90;0.85;;;14.60;90.10;;;;;;5007102;28;20030;-75
2021/11/13 11:09:45;;;;;;;1.48;0.90;;;14.50;90.10;;;;;;5007075;28;20433;-74
2021/11/13 11:12:19;;;;;;;1.75;0.95;;;14.50;90.20;;;;;;5013719;28;20023;-73
2021/11/13 11:14:51;;;;;;;2.33;1.08;;;14.60;90.30;;;;;;5022881;28;20522;-74
2021/11/13 11:17:20;;;;;;;2.45;1.00;;;14.60;90.40;;;;;;5011188;28;20041;-70
2021/11/13 11:19:48;;;;;;;2.55;0.90;;;14.60;90.50;;;;;;5013181;28;20053;-72
2021/11/13 11:22:25;;;;;;;1.67;0.88;;;14.50;90.30;;;;;;5018337;28;20460;-73
2021/11/13 11:24:52;;;;;;;1.23;0.73;;;14.50;90.30;;;;;;5017421;28;20041;-73
2021/11/13 11:27:30;;;;;;;1.52;0.75;;;14.50;90.50;;;;;;5013345;28;20025;-73
2021/11/13 11:30:01;;;;;;;2.05;0.70;;;14.50;90.60;;;;;;5020205;28;20026;-73
2021/11/13 11:32:47;;;;;;;1.25;0.60;;;14.60;90.70;;;;;;5015145;28;20497;-74
2021/11/13 11:35:34;;;;;;;3.50;1.00;;;14.60;90.80;;;;;;5020626;28;20078;-73
2021/11/13 11:38:06;;;;;;;1.40;0.75;;;14.80;90.90;;;;;;5015578;28;20553;-73
2021/11/13 11:40:36;;;;;;;1.63;0.80;;;15.00;90.60;;;;;;5005175;28;20552;-72
2021/11/13 11:43:03;;;;;;;2.00;0.80;;;14.90;90.30;;;;;;5006023;28;20034;-73
2021/11/13 11:45:35;;;;;;;2.00;0.68;;;15.00;90.40;;;;;;5009480;28;20105;-74
2021/11/13 11:48:01;;;;;;;1.77;0.63;;;15.00;90.20;;;;;;5020613;28;20057;-73
2021/11/13 11:50:30;;;;;;;1.95;0.70;;;14.90;89.80;;;;;;5015751;28;20029;-73
2021/11/13 11:53:05;;;;;;;1.63;0.70;;;15.00;90.00;;;;;;5020360;28;20025;-73
2021/11/13 11:55:32;;;;;;;4.00;0.80;;;14.90;89.80;;;;;;5013888;28;20042;-73
2021/11/13 11:58:04;;;;;;;2.90;0.70;;;15.00;89.90;;;;;;5017109;28;20030;-73
2021/11/13 12:00:34;;;;;;;2.15;0.68;;;15.20;90.00;;;;;;5023950;28;20075;-72
2021/11/13 12:03:03;;;;;;;2.00;0.70;;;15.20;89.80;;;;;;5010072;28;20030;-73
2021/11/13 12:05:30;;;;;;;4.80;0.63;;;15.30;89.50;;;;;;5022209;28;20049;-74
2021/11/13 12:07:58;;;;;;;2.92;0.63;;;15.50;89.10;;;;;;5014340;28;20486;-73
2021/11/13 12:10:27;;;;;;;4.22;0.60;;;15.60;89.20;;;;;;5015669;28;20093;-73
2021/11/13 12:13:02;;;;;;;1.75;0.55;;;15.80;89.10;;;;;;5014036;28;20410;-73
2021/11/13 12:15:28;;;;;;;4.70;0.57;;;15.90;88.20;;;;;;5013045;28;20603;-73
2021/11/13 12:17:57;;;;;;;2.95;0.70;;;16.00;86.80;;;;;;5020818;28;20031;-72
2021/11/13 12:20:29;;;;;;;3.83;0.50;;;15.90;86.60;;;;;;5015904;28;20105;-73
2021/11/13 12:23:23;;;;;;;3.43;0.60;;;15.80;86.80;;;;;;4997228;28;20054;-73
2021/11/13 12:26:22;;;;;;;2.95;0.68;;;15.80;87.10;;;;;;5009611;28;20061;-74
2021/11/13 12:28:50;;;;;;;1.42;0.60;;;15.80;87.40;;;;;;5019191;28;20041;-75
2021/11/13 12:31:25;;;;;;;1.65;0.75;;;15.80;87.10;;;;;;4995070;28;20434;-74
2021/11/13 12:33:55;;;;;;;3.30;0.88;;;15.90;88.20;;;;;;5013435;28;20065;-75
2021/11/13 12:36:25;;;;;;;3.03;1.10;;;16.10;88.20;;;;;;5021012;28;20421;-75
2021/11/13 12:38:57;;;;;;;3.67;1.00;;;16.20;86.10;;;;;;5011721;28;20030;-76
2021/11/13 12:41:28;;;;;;;3.95;0.90;;;16.30;86.30;;;;;;5022233;28;20060;-76
2021/11/13 12:43:58;;;;;;;;;;;16.40;86.10;;;;;;5014822;28;20030;-76
2021/11/13 12:46:28;;;;;;;;;;;16.60;87.50;;;;;;5015435;28;20277;-76
2021/11/13 12:49:22;;;;;;;1.75;0.70;;;17.50;92.70;;;;;;5002846;28;20012;-78